Time;durP1;ratioP1;P1;durP2;ratioP2;P2;SDS_P1;SDS_P2;PMS_P1;PMS_P2;Temp;Humidity;BMP_temperature;BMP_pressure;BME280_temperature;BME280_humidity;BME280_pressure;Samples;Min_cycle;Max_cycle;Signal;HPM_P1;HPM_P2
2022/01/08 00:00:37;;;;;;;10.10;4.57;;;4.80;99.90;;;;;;5149670;27;20173;-90
2022/01/08 00:03:06;;;;;;;10.27;4.87;;;4.90;99.90;;;;;;5151425;27;20180;-90
2022/01/08 00:05:32;;;;;;;9.13;5.00;;;4.90;99.90;;;;;;5174257;27;20215;-92
2022/01/08 00:08:00;;;;;;;10.03;3.80;;;4.80;99.90;;;;;;5158568;27;20162;-88
2022/01/08 00:10:27;;;;;;;6.43;3.67;;;4.80;99.90;;;;;;5178044;27;20198;-80
2022/01/08 00:12:53;;;;;;;8.30;4.07;;;4.70;99.90;;;;;;5158579;27;20173;-81
2022/01/08 00:15:25;;;;;;;10.20;3.87;;;4.70;99.90;;;;;;5179787;27;20166;-81
2022/01/08 00:17:54;;;;;;;7.77;3.67;;;4.60;99.90;;;;;;5169646;27;20157;-79
2022/01/08 00:20:19;;;;;;;5.80;3.30;;;4.60;99.90;;;;;;5139562;27;20216;-80
2022/01/08 00:22:51;;;;;;;7.17;2.83;;;4.50;99.90;;;;;;5176138;27;20189;-91
2022/01/08 00:25:32;;;;;;;9.33;3.30;;;4.50;99.90;;;;;;5168429;27;20184;-88
2022/01/08 00:27:59;;;;;;;7.67;2.60;;;4.50;99.90;;;;;;5130663;27;20197;-80
2022/01/08 00:30:25;;;;;;;6.23;2.63;;;4.50;99.90;;;;;;5153253;27;20625;-83
2022/01/08 00:32:52;;;;;;;3.83;1.90;;;4.60;99.90;;;;;;5158669;27;20170;-93
2022/01/08 00:35:17;;;;;;;7.03;2.80;;;4.50;99.90;;;;;;5168556;27;20170;-82
2022/01/08 00:37:43;;;;;;;9.40;2.90;;;4.60;99.90;;;;;;5169572;27;20181;-89
2022/01/08 00:40:10;;;;;;;5.93;2.37;;;4.60;99.90;;;;;;5167911;27;20205;-94
2022/01/08 00:42:42;;;;;;;6.80;2.40;;;4.50;99.90;;;;;;5172853;27;20165;-89
2022/01/08 00:45:08;;;;;;;6.03;2.20;;;4.40;99.90;;;;;;5150660;27;20230;-85
2022/01/08 00:47:34;;;;;;;5.40;2.37;;;4.40;99.90;;;;;;5161774;27;20218;-83
2022/01/08 00:50:00;;;;;;;4.53;2.47;;;4.40;99.90;;;;;;5166072;27;20177;-91
2022/01/08 00:52:26;;;;;;;7.77;2.70;;;4.30;99.90;;;;;;5158782;27;20174;-79
2022/01/08 00:54:52;;;;;;;4.30;1.97;;;4.30;99.90;;;;;;5153138;27;20180;-93
2022/01/08 00:57:18;;;;;;;6.23;2.63;;;4.30;99.90;;;;;;5182830;27;20162;-82
2022/01/08 00:59:43;;;;;;;7.60;2.47;;;4.40;99.90;;;;;;5181626;27;20252;-80
2022/01/08 01:02:12;;;;;;;6.30;2.33;;;4.40;99.90;;;;;;5170692;27;20162;-91
2022/01/08 01:04:56;;;;;;;5.67;2.47;;;4.30;99.90;;;;;;5162198;27;20158;-86
2022/01/08 01:07:24;;;;;;;7.23;2.80;;;4.50;99.90;;;;;;5158766;27;20499;-80
2022/01/08 01:09:51;;;;;;;6.37;2.63;;;4.50;99.90;;;;;;5159314;27;20182;-85
2022/01/08 01:12:18;;;;;;;10.93;2.90;;;4.60;99.90;;;;;;5166257;27;20178;-80
2022/01/08 01:14:44;;;;;;;5.53;2.73;;;4.60;99.90;;;;;;5179964;27;20184;-78
2022/01/08 01:17:12;;;;;;;9.23;2.77;;;4.50;99.90;;;;;;5150406;27;20177;-79
2022/01/08 01:19:58;;;;;;;3.83;2.83;;;4.50;99.90;;;;;;5158829;27;20306;-81
2022/01/08 01:22:28;;;;;;;7.67;3.40;;;4.40;99.90;;;;;;5158082;27;20169;-80
2022/01/08 01:25:02;;;;;;;5.03;3.07;;;4.40;99.90;;;;;;5159215;27;20172;-92
2022/01/08 01:41:28;;;;;;;7.43;4.17;;;4.30;99.90;;;;;;5181773;27;20192;-79
2022/01/08 01:49:16;;;;;;;11.63;5.63;;;4.30;99.90;;;;;;5175691;27;20161;-92
2022/01/08 01:51:48;;;;;;;9.10;5.60;;;4.10;99.90;;;;;;5161236;27;20609;-85
2022/01/08 01:54:14;;;;;;;8.93;5.30;;;4.00;99.90;;;;;;5167185;27;20221;-91
2022/01/08 01:56:40;;;;;;;11.63;5.73;;;4.10;99.90;;;;;;5169547;27;20169;-87
2022/01/08 01:59:06;;;;;;;11.70;6.03;;;4.20;99.90;;;;;;5177275;27;20204;-81
2022/01/08 02:01:33;;;;;;;10.27;6.37;;;4.10;99.90;;;;;;5179944;27;20166;-80
2022/01/08 02:03:59;;;;;;;10.03;7.03;;;4.10;99.90;;;;;;5157561;27;20169;-88
2022/01/08 02:06:27;;;;;;;11.93;7.70;;;4.10;99.90;;;;;;5144908;27;20153;-92
2022/01/08 02:08:54;;;;;;;11.83;8.07;;;4.00;99.90;;;;;;5158813;27;20225;-91
2022/01/08 02:11:20;;;;;;;11.57;7.57;;;4.10;99.90;;;;;;5159835;27;20198;-93
2022/01/08 02:13:46;;;;;;;12.70;8.37;;;4.10;99.90;;;;;;5167462;27;20150;-87
2022/01/08 02:16:19;;;;;;;16.40;8.60;;;4.20;99.90;;;;;;5178499;27;20210;-82
2022/01/08 02:18:46;;;;;;;13.40;9.33;;;4.10;99.90;;;;;;5180514;27;20221;-82
2022/01/08 02:21:15;;;;;;;13.10;9.13;;;4.10;99.90;;;;;;5180651;27;20170;-80
2022/01/08 02:24:26;;;;;;;14.53;9.47;;;4.10;99.90;;;;;;5180088;27;20145;-79
2022/01/08 02:27:06;;;;;;;12.47;9.37;;;4.10;99.90;;;;;;5179957;27;20145;-82
2022/01/08 02:29:33;;;;;;;15.70;9.73;;;4.00;99.90;;;;;;5162368;27;20217;-89
2022/01/08 02:32:07;;;;;;;12.87;9.27;;;3.90;99.90;;;;;;5175906;27;20231;-89
2022/01/08 02:34:37;;;;;;;15.33;9.00;;;3.80;99.90;;;;;;5169454;27;20145;-82
2022/01/08 02:37:18;;;;;;;13.27;8.83;;;3.70;99.90;;;;;;5181534;27;20141;-79
2022/01/08 02:39:48;;;;;;;12.87;9.20;;;3.70;99.90;;;;;;5175958;27;20248;-80
2022/01/08 02:46:21;;;;;;;12.97;8.63;;;3.60;99.90;;;;;;5157339;27;20165;-83
2022/01/08 02:48:47;;;;;;;15.13;9.20;;;3.60;99.90;;;;;;5157088;27;20158;-84
2022/01/08 02:51:13;;;;;;;12.63;8.40;;;3.70;99.90;;;;;;5138515;27;20169;-79
2022/01/08 02:53:39;;;;;;;16.57;9.57;;;3.70;99.90;;;;;;5157749;27;20633;-89
2022/01/08 02:56:05;;;;;;;14.27;9.23;;;3.60;99.90;;;;;;5157286;27;20181;-79
2022/01/08 02:58:31;;;;;;;14.33;9.70;;;3.50;99.90;;;;;;5158444;27;20197;-88
2022/01/08 03:00:57;;;;;;;13.30;8.83;;;3.40;99.90;;;;;;5160484;27;20200;-80
2022/01/08 03:03:23;;;;;;;14.60;9.07;;;3.50;99.90;;;;;;5168454;27;20158;-83
2022/01/08 03:05:50;;;;;;;13.73;8.67;;;3.50;99.90;;;;;;5153326;27;20173;-78
2022/01/08 03:08:21;;;;;;;13.03;9.10;;;3.50;99.90;;;;;;5173999;27;20186;-77
2022/01/08 03:11:19;;;;;;;13.70;9.67;;;3.50;99.90;;;;;;5148118;27;20267;-78
2022/01/08 03:13:45;;;;;;;14.17;9.23;;;3.50;99.90;;;;;;5169142;27;20250;-78
2022/01/08 03:16:11;;;;;;;13.73;9.20;;;3.50;99.90;;;;;;5160115;27;20178;-87
2022/01/08 03:18:37;;;;;;;12.13;9.23;;;3.40;99.90;;;;;;5179685;27;20197;-79
2022/01/08 03:21:15;;;;;;;13.00;9.23;;;3.40;99.90;;;;;;5160719;27;20156;-80
2022/01/08 03:23:49;;;;;;;13.53;9.43;;;3.40;99.90;;;;;;5175908;27;20225;-80
2022/01/08 03:29:37;;;;;;;17.30;11.03;;;3.30;99.90;;;;;;5174979;27;20184;-92
2022/01/08 03:35:34;;;;;;;16.27;9.80;;;3.20;99.90;;;;;;5157326;27;20256;-85
2022/01/08 03:41:12;;;;;;;14.07;10.37;;;3.10;99.90;;;;;;5156349;27;20170;-80
2022/01/08 03:43:38;;;;;;;15.33;10.30;;;3.20;99.90;;;;;;5140626;27;20291;-87
2022/01/08 03:46:04;;;;;;;15.23;10.33;;;3.20;99.90;;;;;;5141248;27;20178;-80
2022/01/08 03:48:43;;;;;;;17.10;11.23;;;3.10;99.90;;;;;;5159398;27;20162;-92
2022/01/08 03:51:10;;;;;;;16.57;11.23;;;3.10;99.90;;;;;;5144818;27;20570;-92
2022/01/08 03:53:38;;;;;;;15.67;10.53;;;3.10;99.90;;;;;;5154393;27;20182;-81
2022/01/08 03:56:04;;;;;;;17.07;11.23;;;3.00;99.90;;;;;;5179733;27;20158;-83
2022/01/08 03:58:30;;;;;;;14.83;11.57;;;3.10;99.90;;;;;;5179317;27;20189;-82
2022/01/08 04:01:05;;;;;;;16.83;11.37;;;3.10;99.90;;;;;;5179867;27;20158;-80
2022/01/08 04:03:31;;;;;;;15.40;9.47;;;3.10;99.90;;;;;;5176881;27;20165;-85
2022/01/08 04:06:04;;;;;;;14.83;11.23;;;3.10;99.90;;;;;;5173655;27;20137;-87
2022/01/08 04:08:57;;;;;;;17.20;11.17;;;3.10;99.90;;;;;;5172325;27;20260;-82
2022/01/08 04:14:54;;;;;;;18.73;12.17;;;3.20;99.90;;;;;;5165885;27;20192;-80
2022/01/08 04:17:20;;;;;;;17.10;12.30;;;3.20;99.90;;;;;;5158119;27;20204;-87
2022/01/08 04:19:45;;;;;;;18.57;11.77;;;3.10;99.90;;;;;;5174449;27;20209;-81
2022/01/08 04:22:16;;;;;;;18.47;12.00;;;3.10;99.90;;;;;;5150070;27;20170;-89
2022/01/08 04:24:58;;;;;;;20.93;12.53;;;3.20;99.90;;;;;;5161022;27;20611;-88
2022/01/08 04:27:27;;;;;;;18.60;12.60;;;3.20;99.90;;;;;;5158954;27;20168;-90
2022/01/08 04:29:52;;;;;;;17.97;12.97;;;3.20;99.90;;;;;;5157524;27;20183;-91
2022/01/08 04:32:18;;;;;;;17.70;12.63;;;3.20;99.90;;;;;;5160059;27;20161;-81
2022/01/08 04:34:45;;;;;;;21.07;13.23;;;3.20;99.90;;;;;;5176848;27;20150;-80
2022/01/08 04:37:10;;;;;;;24.30;13.30;;;3.20;99.90;;;;;;5177981;27;20686;-83
2022/01/08 04:39:38;;;;;;;20.70;12.53;;;3.30;99.90;;;;;;5178921;27;20257;-87
2022/01/08 04:42:21;;;;;;;21.63;12.57;;;3.20;99.90;;;;;;5178776;27;20157;-77
2022/01/08 04:44:52;;;;;;;15.63;12.30;;;3.20;99.90;;;;;;5176053;27;20526;-88
2022/01/08 04:47:18;;;;;;;21.90;14.00;;;3.30;99.90;;;;;;5173662;27;20161;-78
2022/01/08 04:49:44;;;;;;;24.77;13.27;;;3.20;99.90;;;;;;5172999;27;20165;-78
2022/01/08 04:52:13;;;;;;;21.37;13.67;;;3.20;99.90;;;;;;5164726;27;20154;-84
2022/01/08 04:54:39;;;;;;;19.87;13.73;;;3.30;99.90;;;;;;5159917;27;20563;-82
2022/01/08 04:57:05;;;;;;;21.40;13.50;;;3.30;99.90;;;;;;5145571;27;20162;-87
2022/01/08 04:59:31;;;;;;;21.87;12.40;;;3.30;99.90;;;;;;5167597;27;20211;-79
2022/01/08 05:01:56;;;;;;;22.13;14.07;;;3.20;99.90;;;;;;5160910;27;20245;-83
2022/01/08 05:04:23;;;;;;;21.83;13.67;;;3.10;99.90;;;;;;5180776;27;20177;-83
2022/01/08 05:06:49;;;;;;;18.23;13.83;;;3.10;99.90;;;;;;5180852;27;20229;-81
2022/01/08 05:09:17;;;;;;;21.47;13.17;;;3.20;99.90;;;;;;5174836;27;20587;-78
2022/01/08 05:11:46;;;;;;;21.13;13.50;;;3.10;99.90;;;;;;5167147;27;20593;-80
2022/01/08 05:15:03;;;;;;;21.17;13.13;;;3.10;99.90;;;;;;5158846;27;20150;-82
2022/01/08 05:17:33;;;;;;;21.00;12.10;;;3.20;99.90;;;;;;5161362;27;20196;-87
2022/01/08 05:20:04;;;;;;;17.87;11.73;;;3.30;99.90;;;;;;5176063;27;20288;-79
2022/01/08 05:22:41;;;;;;;20.50;12.97;;;3.20;99.90;;;;;;5180227;27;20188;-89
2022/01/08 05:25:10;;;;;;;23.37;14.30;;;3.10;99.90;;;;;;5166399;27;20133;-77
2022/01/08 05:28:29;;;;;;;18.33;12.27;;;3.20;99.90;;;;;;5172747;27;20183;-80
2022/01/08 05:31:21;;;;;;;17.93;12.03;;;3.20;99.90;;;;;;5161429;27;20150;-82
2022/01/08 05:33:51;;;;;;;20.87;12.10;;;3.10;99.90;;;;;;5142741;27;20170;-88
2022/01/08 05:36:17;;;;;;;21.33;13.47;;;3.10;99.90;;;;;;5159786;27;20146;-91
2022/01/08 05:38:42;;;;;;;14.90;12.33;;;3.00;99.90;;;;;;5159023;27;20198;-82
2022/01/08 05:41:09;;;;;;;17.90;13.10;;;3.20;99.90;;;;;;5139150;27;20186;-81
2022/01/08 05:43:35;;;;;;;20.60;12.50;;;3.10;99.90;;;;;;5157560;27;20632;-80
2022/01/08 05:46:01;;;;;;;18.27;13.90;;;3.10;99.90;;;;;;5157619;27;20170;-80
2022/01/08 05:48:27;;;;;;;18.30;12.80;;;3.10;99.90;;;;;;5157946;27;20174;-82
2022/01/08 05:50:52;;;;;;;20.67;12.87;;;3.10;99.90;;;;;;5158329;27;20197;-78
2022/01/08 05:53:19;;;;;;;20.77;12.27;;;3.10;99.90;;;;;;5165258;27;20169;-78
2022/01/08 05:55:46;;;;;;;16.43;12.57;;;3.00;99.90;;;;;;5163239;27;20652;-91
2022/01/08 05:58:12;;;;;;;17.63;11.90;;;3.00;99.90;;;;;;5162478;27;20173;-79
2022/01/08 06:00:40;;;;;;;20.93;13.13;;;3.00;99.90;;;;;;5143900;27;20165;-87
2022/01/08 06:03:06;;;;;;;21.50;12.03;;;3.00;99.90;;;;;;5158685;27;20512;-81
2022/01/08 06:05:31;;;;;;;18.90;12.70;;;3.00;99.90;;;;;;5159437;27;20166;-88
2022/01/08 06:07:57;;;;;;;20.33;12.43;;;2.90;99.90;;;;;;5140371;27;20664;-83
2022/01/08 06:10:25;;;;;;;18.53;11.47;;;3.00;99.90;;;;;;5147943;27;20165;-78
2022/01/08 06:12:53;;;;;;;20.27;12.57;;;3.10;99.90;;;;;;5174862;27;20166;-77
2022/01/08 06:15:19;;;;;;;16.57;11.93;;;3.10;99.90;;;;;;5174827;27;20154;-79
2022/01/08 06:17:45;;;;;;;17.37;12.27;;;3.00;99.90;;;;;;5164443;27;20249;-89
2022/01/08 06:20:11;;;;;;;22.87;12.50;;;3.00;99.90;;;;;;5164079;27;20705;-81
2022/01/08 06:22:38;;;;;;;17.20;12.73;;;3.00;99.90;;;;;;5143836;27;20230;-90
2022/01/08 06:25:04;;;;;;;20.10;12.53;;;3.00;99.90;;;;;;5161862;27;20214;-80
2022/01/08 06:27:31;;;;;;;23.23;12.17;;;3.00;99.90;;;;;;5159351;27;20170;-85
2022/01/08 06:29:57;;;;;;;20.53;12.53;;;2.90;99.90;;;;;;5158012;27;20236;-87
2022/01/08 06:32:22;;;;;;;20.87;12.83;;;2.90;99.90;;;;;;5157633;27;20171;-85
2022/01/08 06:34:48;;;;;;;19.23;11.70;;;2.90;99.90;;;;;;5157663;27;20603;-86
2022/01/08 06:37:14;;;;;;;20.40;11.83;;;2.90;99.90;;;;;;5157538;27;20565;-82
2022/01/08 06:39:39;;;;;;;20.00;12.27;;;2.80;99.90;;;;;;5157943;27;20205;-91
2022/01/08 06:42:11;;;;;;;20.37;12.67;;;2.90;99.90;;;;;;5143045;27;20260;-90
2022/01/08 06:44:37;;;;;;;20.37;12.00;;;2.90;99.90;;;;;;5162387;27;20162;-79
2022/01/08 06:47:03;;;;;;;17.37;11.53;;;2.80;99.90;;;;;;5174286;27;20233;-91
2022/01/08 06:49:31;;;;;;;21.77;12.43;;;2.90;99.90;;;;;;5148410;27;20162;-91
2022/01/08 06:51:57;;;;;;;23.13;12.93;;;2.90;99.90;;;;;;5173329;27;20158;-82
2022/01/08 06:54:24;;;;;;;20.37;13.23;;;2.90;99.90;;;;;;5159499;27;20176;-85
2022/01/08 06:56:49;;;;;;;17.80;12.13;;;3.00;99.90;;;;;;5169913;27;20685;-91
2022/01/08 06:59:16;;;;;;;18.40;11.40;;;3.00;99.90;;;;;;5164821;27;20250;-91
2022/01/08 07:01:43;;;;;;;18.80;12.03;;;3.00;99.90;;;;;;5159125;27;20192;-82
2022/01/08 07:04:09;;;;;;;15.60;11.47;;;3.00;99.90;;;;;;5162253;27;20506;-81
2022/01/08 07:06:35;;;;;;;17.83;12.03;;;3.00;99.90;;;;;;5168653;27;20226;-79
2022/01/08 07:09:03;;;;;;;18.17;11.53;;;3.20;99.90;;;;;;5174098;27;20264;-80
2022/01/08 07:11:28;;;;;;;19.67;12.67;;;3.10;99.90;;;;;;5168617;27;20166;-79
2022/01/08 07:14:16;;;;;;;22.43;11.50;;;3.10;99.90;;;;;;5139884;27;20185;-83
2022/01/08 07:17:30;;;;;;;18.80;11.57;;;3.10;99.90;;;;;;5140752;27;20645;-85
2022/01/08 07:19:56;;;;;;;22.40;12.13;;;3.10;99.90;;;;;;5157559;27;20664;-83
2022/01/08 07:22:22;;;;;;;18.07;11.30;;;3.10;99.90;;;;;;5174624;27;20169;-86
2022/01/08 07:24:47;;;;;;;20.77;12.17;;;3.10;99.90;;;;;;5175160;27;20178;-81
2022/01/08 07:27:46;;;;;;;17.77;11.67;;;3.10;99.90;;;;;;5163098;27;20169;-80
2022/01/08 07:30:12;;;;;;;16.50;11.07;;;3.10;99.90;;;;;;5156732;27;20172;-86
2022/01/08 07:32:46;;;;;;;19.40;11.10;;;3.10;99.90;;;;;;5157977;27;20162;-91
2022/01/08 07:35:14;;;;;;;19.57;10.87;;;3.20;99.90;;;;;;5159778;27;20218;-78
2022/01/08 07:37:41;;;;;;;15.63;10.87;;;3.20;99.90;;;;;;5151336;27;20188;-77
2022/01/08 07:40:08;;;;;;;18.30;10.73;;;3.30;99.90;;;;;;5167065;27;20676;-80
2022/01/08 07:42:33;;;;;;;16.37;9.83;;;3.20;99.90;;;;;;5171279;27;20165;-83
2022/01/08 07:45:04;;;;;;;17.23;9.83;;;3.30;99.90;;;;;;5161668;27;20169;-86
2022/01/08 07:51:01;;;;;;;12.73;8.30;;;3.40;99.90;;;;;;5170890;27;20358;-79
2022/01/08 07:53:27;;;;;;;12.30;8.87;;;3.50;99.90;;;;;;5171458;27;20173;-81
2022/01/08 07:55:57;;;;;;;14.80;8.00;;;3.40;99.90;;;;;;5141111;27;20177;-93
2022/01/08 07:58:53;;;;;;;13.40;7.37;;;3.40;99.90;;;;;;5158212;27;20215;-90
2022/01/08 08:01:21;;;;;;;12.27;7.37;;;3.40;99.90;;;;;;5156974;27;20213;-80
2022/01/08 08:03:49;;;;;;;12.00;7.03;;;3.50;99.90;;;;;;5142218;27;20157;-78
2022/01/08 08:06:16;;;;;;;15.20;7.13;;;3.50;99.90;;;;;;5180517;27;20162;-80
2022/01/08 08:08:42;;;;;;;11.10;6.70;;;3.60;99.90;;;;;;5183150;27;20224;-90
2022/01/08 08:11:29;;;;;;;13.93;7.13;;;3.50;99.90;;;;;;5183707;27;20162;-78
2022/01/08 08:13:58;;;;;;;9.43;6.50;;;3.50;99.90;;;;;;5162655;27;20194;-77
2022/01/08 08:17:14;;;;;;;13.03;6.97;;;3.60;99.90;;;;;;5161692;27;20248;-89
2022/01/08 08:20:02;;;;;;;11.97;7.07;;;3.70;99.90;;;;;;5166756;27;20237;-90
2022/01/08 08:22:45;;;;;;;13.10;7.07;;;3.70;99.90;;;;;;5167822;27;20161;-85
2022/01/08 08:25:11;;;;;;;15.23;6.53;;;3.70;99.90;;;;;;5130560;27;20213;-83
2022/01/08 08:27:39;;;;;;;13.47;6.60;;;3.70;99.90;;;;;;5149892;27;20251;-89
2022/01/08 08:30:06;;;;;;;12.93;6.70;;;3.70;99.90;;;;;;5168259;27;20218;-91
2022/01/08 08:32:33;;;;;;;18.83;7.63;;;3.70;99.90;;;;;;5173352;27;20266;-87
2022/01/08 08:34:58;;;;;;;11.20;6.50;;;3.70;99.90;;;;;;5165968;27;20191;-93
2022/01/08 08:37:24;;;;;;;11.13;6.53;;;3.70;99.90;;;;;;5145119;27;20586;-90
2022/01/08 08:39:50;;;;;;;10.53;6.27;;;3.80;99.90;;;;;;5163750;27;20216;-90
2022/01/08 08:42:16;;;;;;;15.73;7.37;;;3.80;99.90;;;;;;5165071;27;20222;-85
2022/01/08 08:44:42;;;;;;;14.17;7.10;;;3.90;99.90;;;;;;5162073;27;20180;-91
2022/01/08 08:47:10;;;;;;;12.70;6.93;;;3.90;99.90;;;;;;5163901;27;20177;-93
2022/01/08 08:49:36;;;;;;;11.30;6.47;;;4.00;99.90;;;;;;5143438;27;20162;-86
2022/01/08 08:52:03;;;;;;;12.50;7.87;;;4.00;99.90;;;;;;5143299;27;20169;-91
2022/01/08 08:54:30;;;;;;;14.50;7.00;;;4.10;99.90;;;;;;5144283;27;20180;-92
2022/01/08 08:56:55;;;;;;;12.70;6.33;;;4.10;99.90;;;;;;5161699;27;20207;-90
2022/01/08 08:59:24;;;;;;;14.17;7.23;;;4.10;99.90;;;;;;5143209;27;20233;-90
2022/01/08 09:01:50;;;;;;;12.97;6.33;;;4.20;99.90;;;;;;5162878;27;20173;-90
2022/01/08 09:04:16;;;;;;;10.17;4.73;;;4.20;99.90;;;;;;5162659;27;20237;-89
2022/01/08 09:06:41;;;;;;;12.47;4.97;;;4.10;99.90;;;;;;5165070;27;20170;-89
2022/01/08 09:09:07;;;;;;;10.13;4.80;;;4.20;99.90;;;;;;5163405;27;20214;-90
2022/01/08 09:11:34;;;;;;;10.37;5.13;;;4.20;99.90;;;;;;5165351;27;20207;-88
2022/01/08 09:14:00;;;;;;;13.03;5.37;;;4.10;99.90;;;;;;5151921;27;20675;-86
2022/01/08 09:16:27;;;;;;;9.93;5.40;;;4.10;99.90;;;;;;5176333;27;20150;-88
2022/01/08 09:18:53;;;;;;;9.83;5.87;;;4.20;99.90;;;;;;5162012;27;20192;-84
2022/01/08 09:21:19;;;;;;;9.47;5.57;;;4.10;99.90;;;;;;5158947;27;20162;-91
2022/01/08 09:23:45;;;;;;;10.27;5.27;;;4.20;99.90;;;;;;5160585;27;20185;-78
2022/01/08 09:26:12;;;;;;;8.27;5.60;;;4.20;99.90;;;;;;5178347;27;20161;-80
2022/01/08 09:28:39;;;;;;;7.93;6.00;;;4.20;99.90;;;;;;5166944;27;20194;-82
2022/01/08 09:31:06;;;;;;;8.20;5.50;;;4.30;99.90;;;;;;5165750;27;20187;-79
2022/01/08 09:33:32;;;;;;;9.83;5.70;;;4.30;99.90;;;;;;5187261;27;20157;-79
2022/01/08 09:35:58;;;;;;;11.27;5.90;;;4.30;99.90;;;;;;5152666;27;20161;-81
2022/01/08 09:38:27;;;;;;;7.90;5.20;;;4.30;99.90;;;;;;5190191;27;20165;-76
2022/01/08 09:44:43;;;;;;;7.97;4.70;;;4.30;99.90;;;;;;5198826;27;20221;-81
2022/01/08 09:50:50;;;;;;;8.27;4.90;;;4.40;99.90;;;;;;5195336;27;20268;-89
2022/01/08 09:57:06;;;;;;;7.23;4.13;;;4.50;99.90;;;;;;5195529;27;20160;-83
2022/01/08 09:59:39;;;;;;;7.10;3.93;;;4.60;99.90;;;;;;5189954;27;20197;-88
2022/01/08 10:05:15;;;;;;;9.67;4.60;;;4.60;99.90;;;;;;5198887;27;20211;-81
2022/01/08 10:07:41;;;;;;;6.67;3.70;;;4.70;99.90;;;;;;5191819;27;20204;-91
2022/01/08 10:10:21;;;;;;;5.80;3.47;;;4.70;99.90;;;;;;5196126;27;20180;-88
2022/01/08 10:12:53;;;;;;;6.33;3.13;;;4.70;99.90;;;;;;5179610;27;20157;-90
2022/01/08 10:18:32;;;;;;;5.13;3.67;;;4.80;99.90;;;;;;5191054;27;20183;-84
2022/01/08 10:21:18;;;;;;;7.27;3.20;;;4.70;99.90;;;;;;5184911;27;20200;-83
2022/01/08 10:27:18;;;;;;;5.80;4.17;;;4.70;99.90;;;;;;5178164;27;20381;-82
2022/01/08 10:29:57;;;;;;;7.10;4.13;;;4.80;99.90;;;;;;5150817;27;20193;-90
2022/01/08 10:32:29;;;;;;;7.73;3.80;;;4.80;99.90;;;;;;5166801;27;20138;-83
2022/01/08 10:34:54;;;;;;;7.03;4.37;;;4.80;99.90;;;;;;5125340;27;20177;-82
2022/01/08 10:37:24;;;;;;;5.83;3.83;;;4.80;99.90;;;;;;5167805;27;20226;-83
2022/01/08 10:39:57;;;;;;;8.00;3.67;;;4.90;99.90;;;;;;5167378;27;20193;-85
2022/01/08 10:42:37;;;;;;;7.77;3.63;;;4.80;99.90;;;;;;5171013;27;20165;-80
2022/01/08 10:45:14;;;;;;;6.93;4.00;;;4.80;99.90;;;;;;5171902;27;20186;-78
2022/01/08 10:47:42;;;;;;;6.00;4.00;;;4.90;99.90;;;;;;5174491;27;20162;-87
2022/01/08 10:50:23;;;;;;;6.40;4.37;;;4.80;99.90;;;;;;5165787;27;20166;-85
2022/01/08 10:53:08;;;;;;;8.33;4.03;;;4.90;99.90;;;;;;5158792;27;20158;-92
2022/01/08 10:55:43;;;;;;;8.77;3.87;;;5.00;99.90;;;;;;5152279;27;20210;-91
2022/01/08 10:58:43;;;;;;;5.97;3.93;;;5.10;99.90;;;;;;5173890;27;20164;-81
2022/01/08 11:02:02;;;;;;;9.50;4.00;;;5.10;99.90;;;;;;5179119;27;20256;-82
2022/01/08 11:04:53;;;;;;;6.00;4.30;;;5.10;99.90;;;;;;5136580;27;20171;-78
2022/01/08 11:07:20;;;;;;;6.73;4.03;;;5.10;99.90;;;;;;5158286;27;20189;-79
2022/01/08 11:09:50;;;;;;;6.33;4.00;;;5.10;99.90;;;;;;5156857;27;20190;-80
2022/01/08 11:12:40;;;;;;;8.40;4.30;;;5.10;99.90;;;;;;5176213;27;20185;-83
2022/01/08 11:15:36;;;;;;;8.57;4.80;;;5.20;99.90;;;;;;5159224;27;20176;-85
2022/01/08 11:18:02;;;;;;;7.67;3.73;;;5.10;99.90;;;;;;5178091;27;20183;-81
2022/01/08 11:21:09;;;;;;;7.33;4.60;;;5.10;99.90;;;;;;5138610;27;20210;-83
2022/01/08 11:24:17;;;;;;;6.30;4.10;;;5.10;99.90;;;;;;5176541;27;20157;-82
2022/01/08 11:27:21;;;;;;;5.93;3.53;;;5.10;99.90;;;;;;5178577;27;20165;-82
2022/01/08 11:29:57;;;;;;;9.40;3.93;;;5.10;99.90;;;;;;5162523;27;20182;-81
2022/01/08 11:32:31;;;;;;;7.70;3.43;;;5.10;99.90;;;;;;5175302;27;20191;-82
2022/01/08 11:35:14;;;;;;;8.17;4.10;;;5.10;99.90;;;;;;5178294;27;20241;-84
2022/01/08 11:38:20;;;;;;;7.17;3.57;;;5.10;99.90;;;;;;5184425;27;20177;-81
2022/01/08 11:40:58;;;;;;;7.53;3.57;;;5.20;99.90;;;;;;5190243;27;20606;-92
2022/01/08 11:47:07;;;;;;;5.97;3.87;;;5.30;99.90;;;;;;5204351;27;20171;-85
2022/01/08 11:50:22;;;;;;;9.40;3.40;;;5.30;99.90;;;;;;5201495;27;20172;-81
2022/01/08 11:53:31;;;;;;;8.77;3.37;;;5.30;99.90;;;;;;5187283;27;20178;-81
2022/01/08 11:56:38;;;;;;;5.63;3.20;;;5.30;99.90;;;;;;5187216;27;20157;-80
2022/01/08 12:00:02;;;;;;;9.03;4.30;;;5.20;99.90;;;;;;5204614;27;20200;-80
2022/01/08 12:02:46;;;;;;;4.50;2.93;;;5.20;99.90;;;;;;5183620;27;20181;-80
2022/01/08 12:05:17;;;;;;;5.83;3.07;;;5.20;99.90;;;;;;5171348;27;20165;-81
2022/01/08 12:07:47;;;;;;;10.30;5.53;;;5.20;99.90;;;;;;5139680;27;20177;-84
2022/01/08 12:17:14;;;;;;;6.07;3.20;;;5.20;99.90;;;;;;5165547;27;20186;-89
2022/01/08 12:19:46;;;;;;;5.10;2.80;;;5.30;99.90;;;;;;5164279;27;20225;-84
2022/01/08 12:22:22;;;;;;;6.30;3.40;;;5.30;99.90;;;;;;5152916;27;20651;-87
2022/01/08 12:25:00;;;;;;;6.97;3.93;;;5.30;99.90;;;;;;5157422;27;20172;-85
2022/01/08 12:27:48;;;;;;;5.63;3.10;;;5.30;99.90;;;;;;5141157;27;20250;-82
2022/01/08 12:30:31;;;;;;;6.77;2.87;;;5.30;99.90;;;;;;5160379;27;20166;-82
2022/01/08 12:33:24;;;;;;;4.83;3.10;;;5.40;99.90;;;;;;5159287;27;20170;-81
2022/01/08 12:36:23;;;;;;;5.67;3.17;;;5.30;99.90;;;;;;5142845;27;20207;-83
2022/01/08 12:39:07;;;;;;;6.60;3.60;;;5.30;99.90;;;;;;5181708;27;20201;-90
2022/01/08 12:41:40;;;;;;;4.63;3.13;;;5.30;99.90;;;;;;5180619;27;20173;-80
2022/01/08 12:44:41;;;;;;;6.43;3.03;;;5.30;99.90;;;;;;5179637;27;20169;-80
2022/01/08 12:47:45;;;;;;;5.20;2.93;;;5.40;99.90;;;;;;5181460;27;20154;-80
2022/01/08 12:53:39;;;;;;;5.53;2.97;;;5.40;99.90;;;;;;5181493;27;20165;-89
2022/01/08 12:56:20;;;;;;;4.17;2.80;;;5.40;99.90;;;;;;5180385;27;20166;-85
2022/01/08 12:59:04;;;;;;;3.93;2.60;;;5.50;99.90;;;;;;5163763;27;20280;-82
2022/01/08 13:01:30;;;;;;;4.97;3.00;;;5.50;99.90;;;;;;5148712;27;20173;-84
2022/01/08 13:04:22;;;;;;;4.33;2.67;;;5.70;99.90;;;;;;5151096;27;20173;-96
2022/01/08 13:06:52;;;;;;;4.47;2.43;;;5.60;99.90;;;;;;5174812;27;20166;-91
2022/01/08 13:09:18;;;;;;;3.47;2.27;;;5.70;99.90;;;;;;5171052;27;20391;-94
2022/01/08 13:11:47;;;;;;;4.57;2.60;;;5.70;99.90;;;;;;5147351;27;20174;-89
2022/01/08 13:14:21;;;;;;;2.70;2.10;;;5.70;99.90;;;;;;5180975;27;20164;-85
2022/01/08 13:16:49;;;;;;;4.40;2.13;;;5.80;99.90;;;;;;5191510;27;20156;-91
2022/01/08 13:19:24;;;;;;;4.27;2.27;;;5.80;99.90;;;;;;5166254;27;20208;-91
2022/01/08 13:21:55;;;;;;;7.30;3.00;;;5.80;99.90;;;;;;5137766;27;20529;-95
2022/01/08 13:24:23;;;;;;;4.87;2.90;;;6.00;99.90;;;;;;5128136;27;20643;-90
2022/01/08 13:26:54;;;;;;;2.93;2.30;;;6.00;99.90;;;;;;5158195;27;20174;-93
2022/01/08 13:29:34;;;;;;;5.67;3.53;;;6.00;99.90;;;;;;5135491;27;20262;-92
2022/01/08 13:32:01;;;;;;;5.23;3.23;;;6.00;99.90;;;;;;5146169;27;20169;-94
2022/01/08 13:35:01;;;;;;;6.47;2.80;;;6.20;99.90;;;;;;5151773;27;20170;-88
2022/01/08 13:38:00;;;;;;;8.30;3.57;;;6.10;99.90;;;;;;5171336;27;20205;-85
2022/01/08 13:40:26;;;;;;;5.10;2.67;;;6.10;99.90;;;;;;5143642;27;20210;-94
2022/01/08 13:43:02;;;;;;;6.23;2.40;;;6.20;99.90;;;;;;5132502;27;20161;-89
2022/01/08 13:45:55;;;;;;;3.83;2.77;;;6.20;99.90;;;;;;5155896;27;20253;-90
2022/01/08 13:48:23;;;;;;;4.93;2.60;;;6.30;99.90;;;;;;5165645;27;20618;-95
2022/01/08 13:50:57;;;;;;;5.60;2.33;;;6.30;99.90;;;;;;5170657;27;20165;-83
2022/01/08 13:53:24;;;;;;;3.30;2.17;;;6.30;99.90;;;;;;5194125;27;20155;-87
2022/01/08 13:56:12;;;;;;;4.60;2.30;;;6.40;99.90;;;;;;5181647;27;20177;-83
2022/01/08 13:58:39;;;;;;;6.67;2.27;;;6.40;99.90;;;;;;5138304;27;20171;-85
2022/01/08 14:04:29;;;;;;;7.43;2.70;;;6.50;99.90;;;;;;5157251;27;20178;-88
2022/01/08 14:07:13;;;;;;;4.90;2.30;;;6.50;99.90;;;;;;5160595;27;20146;-89
2022/01/08 14:09:58;;;;;;;7.13;2.10;;;6.50;99.90;;;;;;5150190;27;20190;-82
2022/01/08 14:12:28;;;;;;;5.37;2.50;;;6.60;99.90;;;;;;5158543;27;20185;-84
2022/01/08 14:14:56;;;;;;;7.20;2.50;;;6.60;99.90;;;;;;5137523;27;20201;-91
2022/01/08 14:17:29;;;;;;;6.90;2.63;;;6.70;99.90;;;;;;5138447;27;20241;-83
2022/01/08 14:20:09;;;;;;;6.87;4.17;;;6.70;99.90;;;;;;5155450;27;20261;-88
2022/01/08 14:22:38;;;;;;;7.00;4.60;;;6.70;99.90;;;;;;5157452;27;20165;-83
2022/01/08 14:28:37;;;;;;;4.23;2.53;;;6.80;99.90;;;;;;5175741;27;20165;-82
2022/01/08 14:31:17;;;;;;;7.43;2.80;;;6.80;99.90;;;;;;5176731;27;20154;-82
2022/01/08 14:34:15;;;;;;;6.43;2.40;;;7.00;99.90;;;;;;5175812;27;20138;-81
2022/01/08 14:37:02;;;;;;;6.33;2.23;;;6.90;99.90;;;;;;5174236;27;20168;-82
2022/01/08 14:39:45;;;;;;;8.27;3.57;;;6.90;99.90;;;;;;5158987;27;20201;-81